sensor_id;sensor_type;location;lat;lon;timestamp;P1;durP1;ratioP1;P2;durP2;ratioP2
77152;SDS011;66124;51.146;17.072;2023-04-12T00:02:23;6.10;;;3.50;;
77152;SDS011;66124;51.146;17.072;2023-04-12T00:04:53;8.50;;;3.90;;
77152;SDS011;66124;51.146;17.072;2023-04-12T00:07:23;7.30;;;3.50;;
77152;SDS011;66124;51.146;17.072;2023-04-12T00:09:52;6.90;;;3.00;;
77152;SDS011;66124;51.146;17.072;2023-04-12T00:12:22;7.50;;;3.60;;
77152;SDS011;66124;51.146;17.072;2023-04-12T00:14:52;6.00;;;3.50;;
77152;SDS011;66124;51.146;17.072;2023-04-12T00:17:21;6.80;;;3.50;;
77152;SDS011;66124;51.146;17.072;2023-04-12T00:19:51;5.90;;;3.30;;
77152;SDS011;66124;51.146;17.072;2023-04-12T00:22:20;6.70;;;3.70;;
77152;SDS011;66124;51.146;17.072;2023-04-12T00:24:49;7.40;;;3.80;;
77152;SDS011;66124;51.146;17.072;2023-04-12T00:27:19;9.20;;;3.60;;
77152;SDS011;66124;51.146;17.072;2023-04-12T00:29:48;5.40;;;3.00;;
77152;SDS011;66124;51.146;17.072;2023-04-12T00:32:17;7.10;;;3.20;;
77152;SDS011;66124;51.146;17.072;2023-04-12T00:34:47;7.80;;;3.40;;
77152;SDS011;66124;51.146;17.072;2023-04-12T00:37:16;6.80;;;3.00;;
77152;SDS011;66124;51.146;17.072;2023-04-12T00:39:45;7.60;;;3.40;;
77152;SDS011;66124;51.146;17.072;2023-04-12T00:42:15;7.10;;;3.20;;
77152;SDS011;66124;51.146;17.072;2023-04-12T00:44:44;6.20;;;3.10;;
77152;SDS011;66124;51.146;17.072;2023-04-12T00:47:14;5.60;;;3.00;;
77152;SDS011;66124;51.146;17.072;2023-04-12T00:49:43;8.10;;;3.50;;
77152;SDS011;66124;51.146;17.072;2023-04-12T00:52:13;6.30;;;3.50;;
77152;SDS011;66124;51.146;17.072;2023-04-12T00:54:42;7.90;;;3.00;;
77152;SDS011;66124;51.146;17.072;2023-04-12T00:57:12;6.20;;;3.50;;
77152;SDS011;66124;51.146;17.072;2023-04-12T00:59:42;6.40;;;3.40;;
77152;SDS011;66124;51.146;17.072;2023-04-12T01:02:11;8.60;;;3.30;;
77152;SDS011;66124;51.146;17.072;2023-04-12T01:04:41;5.30;;;2.70;;
77152;SDS011;66124;51.146;17.072;2023-04-12T01:07:13;6.30;;;2.40;;
77152;SDS011;66124;51.146;17.072;2023-04-12T01:09:52;6.10;;;2.90;;
77152;SDS011;66124;51.146;17.072;2023-04-12T01:12:34;5.60;;;2.60;;
77152;SDS011;66124;51.146;17.072;2023-04-12T01:20:18;5.20;;;2.80;;
77152;SDS011;66124;51.146;17.072;2023-04-12T01:23:09;5.30;;;2.60;;
77152;SDS011;66124;51.146;17.072;2023-04-12T01:25:55;3.70;;;1.90;;
77152;SDS011;66124;51.146;17.072;2023-04-12T01:28:36;5.90;;;2.60;;
77152;SDS011;66124;51.146;17.072;2023-04-12T01:31:09;4.50;;;2.60;;
77152;SDS011;66124;51.146;17.072;2023-04-12T01:33:39;4.00;;;2.30;;
77152;SDS011;66124;51.146;17.072;2023-04-12T01:36:12;5.90;;;2.50;;
77152;SDS011;66124;51.146;17.072;2023-04-12T01:38:45;5.60;;;3.20;;
77152;SDS011;66124;51.146;17.072;2023-04-12T01:41:15;4.00;;;2.20;;
77152;SDS011;66124;51.146;17.072;2023-04-12T01:43:45;3.90;;;2.10;;
77152;SDS011;66124;51.146;17.072;2023-04-12T01:46:15;3.90;;;2.40;;
77152;SDS011;66124;51.146;17.072;2023-04-12T01:48:50;3.70;;;1.90;;
77152;SDS011;66124;51.146;17.072;2023-04-12T01:51:26;4.70;;;2.70;;
77152;SDS011;66124;51.146;17.072;2023-04-12T01:54:07;4.30;;;2.40;;
77152;SDS011;66124;51.146;17.072;2023-04-12T01:56:39;4.60;;;2.30;;
77152;SDS011;66124;51.146;17.072;2023-04-12T01:59:11;4.30;;;2.10;;
77152;SDS011;66124;51.146;17.072;2023-04-12T02:01:42;4.40;;;2.00;;
77152;SDS011;66124;51.146;17.072;2023-04-12T02:04:13;5.00;;;2.40;;
77152;SDS011;66124;51.146;17.072;2023-04-12T02:06:43;5.60;;;2.50;;
77152;SDS011;66124;51.146;17.072;2023-04-12T02:09:14;3.90;;;2.30;;
77152;SDS011;66124;51.146;17.072;2023-04-12T02:11:46;3.80;;;2.20;;
77152;SDS011;66124;51.146;17.072;2023-04-12T02:14:16;4.90;;;2.30;;
77152;SDS011;66124;51.146;17.072;2023-04-12T02:16:45;5.50;;;2.90;;
77152;SDS011;66124;51.146;17.072;2023-04-12T02:19:14;4.60;;;2.20;;
77152;SDS011;66124;51.146;17.072;2023-04-12T02:21:44;4.10;;;2.20;;
77152;SDS011;66124;51.146;17.072;2023-04-12T02:24:14;5.00;;;2.30;;
77152;SDS011;66124;51.146;17.072;2023-04-12T02:26:43;4.10;;;2.30;;
77152;SDS011;66124;51.146;17.072;2023-04-12T02:29:13;4.40;;;2.10;;
77152;SDS011;66124;51.146;17.072;2023-04-12T02:31:42;4.00;;;1.80;;
77152;SDS011;66124;51.146;17.072;2023-04-12T02:39:58;5.10;;;2.70;;
77152;SDS011;66124;51.146;17.072;2023-04-12T02:42:27;6.40;;;2.50;;
77152;SDS011;66124;51.146;17.072;2023-04-12T02:44:57;5.20;;;2.50;;
77152;SDS011;66124;51.146;17.072;2023-04-12T02:47:26;6.10;;;2.50;;
77152;SDS011;66124;51.146;17.072;2023-04-12T02:49:55;3.90;;;1.90;;
77152;SDS011;66124;51.146;17.072;2023-04-12T02:52:27;5.70;;;2.60;;
77152;SDS011;66124;51.146;17.072;2023-04-12T02:54:56;5.80;;;2.50;;
77152;SDS011;66124;51.146;17.072;2023-04-12T02:57:26;7.30;;;3.30;;
77152;SDS011;66124;51.146;17.072;2023-04-12T02:59:55;5.70;;;3.10;;
77152;SDS011;66124;51.146;17.072;2023-04-12T03:02:24;4.80;;;3.00;;
77152;SDS011;66124;51.146;17.072;2023-04-12T03:04:54;4.90;;;2.90;;
77152;SDS011;66124;51.146;17.072;2023-04-12T03:07:23;5.80;;;2.50;;
77152;SDS011;66124;51.146;17.072;2023-04-12T03:09:53;5.60;;;3.10;;
77152;SDS011;66124;51.146;17.072;2023-04-12T03:12:23;5.50;;;2.80;;
77152;SDS011;66124;51.146;17.072;2023-04-12T03:14:52;6.20;;;2.70;;
77152;SDS011;66124;51.146;17.072;2023-04-12T03:17:22;6.30;;;3.20;;
77152;SDS011;66124;51.146;17.072;2023-04-12T03:19:51;6.50;;;3.10;;
77152;SDS011;66124;51.146;17.072;2023-04-12T03:22:20;6.40;;;3.20;;
77152;SDS011;66124;51.146;17.072;2023-04-12T03:24:50;4.70;;;2.80;;
77152;SDS011;66124;51.146;17.072;2023-04-12T03:27:19;6.00;;;2.60;;
77152;SDS011;66124;51.146;17.072;2023-04-12T03:29:49;5.50;;;3.50;;
77152;SDS011;66124;51.146;17.072;2023-04-12T03:32:18;5.90;;;3.30;;
77152;SDS011;66124;51.146;17.072;2023-04-12T03:34:47;5.50;;;2.70;;
77152;SDS011;66124;51.146;17.072;2023-04-12T03:37:17;6.50;;;3.20;;
77152;SDS011;66124;51.146;17.072;2023-04-12T03:39:46;4.60;;;3.10;;
77152;SDS011;66124;51.146;17.072;2023-04-12T03:42:15;4.30;;;2.90;;
77152;SDS011;66124;51.146;17.072;2023-04-12T03:44:45;7.70;;;3.00;;
77152;SDS011;66124;51.146;17.072;2023-04-12T03:47:14;6.50;;;3.10;;
77152;SDS011;66124;51.146;17.072;2023-04-12T03:49:43;2.80;;;1.70;;
77152;SDS011;66124;51.146;17.072;2023-04-12T03:59:50;5.00;;;2.60;;
77152;SDS011;66124;51.146;17.072;2023-04-12T04:02:19;5.10;;;2.50;;
77152;SDS011;66124;51.146;17.072;2023-04-12T04:04:49;4.70;;;2.30;;
77152;SDS011;66124;51.146;17.072;2023-04-12T04:07:19;4.60;;;2.70;;
77152;SDS011;66124;51.146;17.072;2023-04-12T04:09:49;5.20;;;2.70;;
77152;SDS011;66124;51.146;17.072;2023-04-12T04:12:20;5.10;;;3.20;;
77152;SDS011;66124;51.146;17.072;2023-04-12T04:14:50;4.60;;;3.30;;
77152;SDS011;66124;51.146;17.072;2023-04-12T04:17:19;6.70;;;3.10;;
77152;SDS011;66124;51.146;17.072;2023-04-12T04:19:49;6.50;;;3.30;;
77152;SDS011;66124;51.146;17.072;2023-04-12T04:22:18;7.00;;;3.10;;
77152;SDS011;66124;51.146;17.072;2023-04-12T04:24:47;6.10;;;3.20;;
77152;SDS011;66124;51.146;17.072;2023-04-12T04:27:17;6.90;;;3.40;;
77152;SDS011;66124;51.146;17.072;2023-04-12T04:29:46;5.50;;;3.30;;
77152;SDS011;66124;51.146;17.072;2023-04-12T04:32:16;5.10;;;3.20;;
77152;SDS011;66124;51.146;17.072;2023-04-12T04:34:45;7.30;;;3.60;;
77152;SDS011;66124;51.146;17.072;2023-04-12T04:37:14;5.80;;;3.10;;
77152;SDS011;66124;51.146;17.072;2023-04-12T04:39:44;9.50;;;4.30;;
77152;SDS011;66124;51.146;17.072;2023-04-12T04:42:13;6.20;;;3.50;;
77152;SDS011;66124;51.146;17.072;2023-04-12T04:44:43;6.10;;;3.20;;
77152;SDS011;66124;51.146;17.072;2023-04-12T04:47:12;5.70;;;3.70;;
77152;SDS011;66124;51.146;17.072;2023-04-12T04:49:42;6.90;;;3.60;;
77152;SDS011;66124;51.146;17.072;2023-04-12T04:52:11;6.10;;;3.60;;
77152;SDS011;66124;51.146;17.072;2023-04-12T04:54:41;8.00;;;3.80;;
77152;SDS011;66124;51.146;17.072;2023-04-12T04:57:10;7.00;;;3.50;;
77152;SDS011;66124;51.146;17.072;2023-04-12T04:59:40;7.10;;;3.70;;
77152;SDS011;66124;51.146;17.072;2023-04-12T05:02:09;8.50;;;3.70;;
77152;SDS011;66124;51.146;17.072;2023-04-12T05:04:39;4.70;;;3.10;;
77152;SDS011;66124;51.146;17.072;2023-04-12T05:07:08;5.40;;;3.70;;
77152;SDS011;66124;51.146;17.072;2023-04-12T05:15:06;6.20;;;3.30;;
77152;SDS011;66124;51.146;17.072;2023-04-12T05:17:36;7.50;;;3.90;;
77152;SDS011;66124;51.146;17.072;2023-04-12T05:20:07;6.40;;;4.20;;
77152;SDS011;66124;51.146;17.072;2023-04-12T05:22:37;6.00;;;3.30;;
77152;SDS011;66124;51.146;17.072;2023-04-12T05:25:08;5.10;;;3.10;;
77152;SDS011;66124;51.146;17.072;2023-04-12T05:27:37;5.00;;;3.20;;
77152;SDS011;66124;51.146;17.072;2023-04-12T05:30:08;4.40;;;2.90;;
77152;SDS011;66124;51.146;17.072;2023-04-12T05:32:38;6.00;;;3.60;;
77152;SDS011;66124;51.146;17.072;2023-04-12T05:35:08;8.00;;;4.50;;
77152;SDS011;66124;51.146;17.072;2023-04-12T05:37:37;6.60;;;3.20;;
77152;SDS011;66124;51.146;17.072;2023-04-12T05:40:07;6.70;;;3.80;;
77152;SDS011;66124;51.146;17.072;2023-04-12T05:42:37;5.80;;;3.30;;
77152;SDS011;66124;51.146;17.072;2023-04-12T05:45:08;5.60;;;3.30;;
77152;SDS011;66124;51.146;17.072;2023-04-12T05:47:38;7.00;;;3.20;;
77152;SDS011;66124;51.146;17.072;2023-04-12T05:50:08;6.60;;;3.60;;
77152;SDS011;66124;51.146;17.072;2023-04-12T05:52:38;6.60;;;3.20;;
77152;SDS011;66124;51.146;17.072;2023-04-12T05:55:08;6.70;;;3.20;;
77152;SDS011;66124;51.146;17.072;2023-04-12T05:57:37;6.50;;;3.70;;
77152;SDS011;66124;51.146;17.072;2023-04-12T06:00:08;5.80;;;3.20;;
77152;SDS011;66124;51.146;17.072;2023-04-12T06:02:38;7.20;;;3.10;;
77152;SDS011;66124;51.146;17.072;2023-04-12T06:05:08;5.80;;;3.00;;
77152;SDS011;66124;51.146;17.072;2023-04-12T06:07:38;5.80;;;3.80;;
77152;SDS011;66124;51.146;17.072;2023-04-12T06:10:08;7.30;;;3.50;;
77152;SDS011;66124;51.146;17.072;2023-04-12T06:12:38;5.70;;;3.80;;
77152;SDS011;66124;51.146;17.072;2023-04-12T06:15:08;5.30;;;3.00;;
77152;SDS011;66124;51.146;17.072;2023-04-12T06:17:38;7.20;;;3.50;;
77152;SDS011;66124;51.146;17.072;2023-04-12T06:20:09;7.20;;;3.60;;
77152;SDS011;66124;51.146;17.072;2023-04-12T06:22:39;5.90;;;3.60;;
77152;SDS011;66124;51.146;17.072;2023-04-12T06:34:58;6.00;;;3.90;;
77152;SDS011;66124;51.146;17.072;2023-04-12T06:37:28;6.20;;;3.70;;
77152;SDS011;66124;51.146;17.072;2023-04-12T06:39:57;7.70;;;3.70;;
77152;SDS011;66124;51.146;17.072;2023-04-12T06:42:27;5.50;;;3.40;;
77152;SDS011;66124;51.146;17.072;2023-04-12T06:44:56;4.70;;;3.10;;
77152;SDS011;66124;51.146;17.072;2023-04-12T06:47:27;7.30;;;3.70;;
77152;SDS011;66124;51.146;17.072;2023-04-12T06:49:56;6.00;;;3.40;;
77152;SDS011;66124;51.146;17.072;2023-04-12T06:52:26;4.80;;;2.50;;
77152;SDS011;66124;51.146;17.072;2023-04-12T06:54:55;4.80;;;2.40;;
77152;SDS011;66124;51.146;17.072;2023-04-12T06:57:25;4.10;;;2.30;;
77152;SDS011;66124;51.146;17.072;2023-04-12T06:59:54;5.30;;;2.60;;
77152;SDS011;66124;51.146;17.072;2023-04-12T07:02:24;5.20;;;2.40;;
77152;SDS011;66124;51.146;17.072;2023-04-12T07:04:53;6.20;;;2.50;;
77152;SDS011;66124;51.146;17.072;2023-04-12T07:07:22;3.90;;;2.80;;
77152;SDS011;66124;51.146;17.072;2023-04-12T07:09:52;4.60;;;2.80;;
77152;SDS011;66124;51.146;17.072;2023-04-12T07:12:21;3.80;;;2.60;;
77152;SDS011;66124;51.146;17.072;2023-04-12T07:14:51;3.60;;;2.40;;
77152;SDS011;66124;51.146;17.072;2023-04-12T07:17:20;4.60;;;2.30;;
77152;SDS011;66124;51.146;17.072;2023-04-12T07:19:50;5.10;;;2.80;;
77152;SDS011;66124;51.146;17.072;2023-04-12T07:22:20;3.70;;;2.10;;
77152;SDS011;66124;51.146;17.072;2023-04-12T07:24:49;3.90;;;2.10;;
77152;SDS011;66124;51.146;17.072;2023-04-12T07:27:19;4.30;;;2.30;;
77152;SDS011;66124;51.146;17.072;2023-04-12T07:29:49;4.10;;;2.10;;
77152;SDS011;66124;51.146;17.072;2023-04-12T07:32:19;4.40;;;2.70;;
77152;SDS011;66124;51.146;17.072;2023-04-12T07:34:48;4.40;;;2.60;;
77152;SDS011;66124;51.146;17.072;2023-04-12T07:37:18;3.80;;;2.40;;
77152;SDS011;66124;51.146;17.072;2023-04-12T07:39:47;4.40;;;2.20;;
77152;SDS011;66124;51.146;17.072;2023-04-12T07:42:17;3.20;;;2.20;;
77152;SDS011;66124;51.146;17.072;2023-04-12T07:44:46;5.20;;;2.10;;
77152;SDS011;66124;51.146;17.072;2023-04-12T07:54:51;3.60;;;1.70;;
77152;SDS011;66124;51.146;17.072;2023-04-12T07:57:20;4.00;;;1.90;;
77152;SDS011;66124;51.146;17.072;2023-04-12T07:59:50;3.50;;;2.10;;
77152;SDS011;66124;51.146;17.072;2023-04-12T08:02:19;4.30;;;1.70;;
77152;SDS011;66124;51.146;17.072;2023-04-12T08:04:49;3.20;;;1.90;;
77152;SDS011;66124;51.146;17.072;2023-04-12T08:07:19;3.40;;;1.90;;
77152;SDS011;66124;51.146;17.072;2023-04-12T08:09:49;2.60;;;1.70;;
77152;SDS011;66124;51.146;17.072;2023-04-12T08:12:19;3.40;;;1.90;;
77152;SDS011;66124;51.146;17.072;2023-04-12T08:14:48;3.50;;;1.70;;
77152;SDS011;66124;51.146;17.072;2023-04-12T08:17:18;3.80;;;1.90;;
77152;SDS011;66124;51.146;17.072;2023-04-12T08:19:47;3.80;;;1.50;;
77152;SDS011;66124;51.146;17.072;2023-04-12T08:22:16;3.30;;;1.50;;
77152;SDS011;66124;51.146;17.072;2023-04-12T08:24:46;3.50;;;1.50;;
77152;SDS011;66124;51.146;17.072;2023-04-12T08:27:15;3.90;;;1.50;;
77152;SDS011;66124;51.146;17.072;2023-04-12T08:29:44;3.70;;;1.90;;
77152;SDS011;66124;51.146;17.072;2023-04-12T08:32:14;5.00;;;1.70;;
77152;SDS011;66124;51.146;17.072;2023-04-12T08:34:44;3.40;;;1.80;;
77152;SDS011;66124;51.146;17.072;2023-04-12T08:37:13;5.60;;;1.90;;
77152;SDS011;66124;51.146;17.072;2023-04-12T08:39:43;3.70;;;1.80;;
77152;SDS011;66124;51.146;17.072;2023-04-12T08:42:12;4.00;;;1.90;;
77152;SDS011;66124;51.146;17.072;2023-04-12T08:44:42;3.80;;;2.30;;
77152;SDS011;66124;51.146;17.072;2023-04-12T08:47:12;4.20;;;2.20;;
77152;SDS011;66124;51.146;17.072;2023-04-12T08:49:43;3.50;;;2.40;;
77152;SDS011;66124;51.146;17.072;2023-04-12T08:52:12;4.90;;;2.50;;
77152;SDS011;66124;51.146;17.072;2023-04-12T08:54:42;4.60;;;2.90;;
77152;SDS011;66124;51.146;17.072;2023-04-12T08:57:11;5.60;;;3.00;;
77152;SDS011;66124;51.146;17.072;2023-04-12T08:59:42;3.80;;;2.50;;
77152;SDS011;66124;51.146;17.072;2023-04-12T09:02:13;5.60;;;2.50;;
77152;SDS011;66124;51.146;17.072;2023-04-12T09:04:49;3.10;;;2.40;;
77152;SDS011;66124;51.146;17.072;2023-04-12T09:14:34;4.60;;;1.90;;
77152;SDS011;66124;51.146;17.072;2023-04-12T09:17:04;3.30;;;2.00;;
77152;SDS011;66124;51.146;17.072;2023-04-12T09:19:47;3.00;;;1.90;;
77152;SDS011;66124;51.146;17.072;2023-04-12T09:22:17;2.90;;;2.10;;
77152;SDS011;66124;51.146;17.072;2023-04-12T09:24:59;3.10;;;1.90;;
77152;SDS011;66124;51.146;17.072;2023-04-12T09:27:28;2.70;;;1.70;;
77152;SDS011;66124;51.146;17.072;2023-04-12T09:30:13;2.50;;;1.50;;
77152;SDS011;66124;51.146;17.072;2023-04-12T09:32:44;3.60;;;1.50;;
77152;SDS011;66124;51.146;17.072;2023-04-12T09:35:13;2.60;;;1.60;;
77152;SDS011;66124;51.146;17.072;2023-04-12T09:37:43;2.50;;;1.70;;
77152;SDS011;66124;51.146;17.072;2023-04-12T09:40:13;5.80;;;1.80;;
77152;SDS011;66124;51.146;17.072;2023-04-12T09:42:49;2.70;;;1.40;;
77152;SDS011;66124;51.146;17.072;2023-04-12T09:45:20;4.50;;;1.90;;
77152;SDS011;66124;51.146;17.072;2023-04-12T09:47:51;1.90;;;1.40;;
77152;SDS011;66124;51.146;17.072;2023-04-12T09:50:22;2.40;;;1.50;;
77152;SDS011;66124;51.146;17.072;2023-04-12T09:52:53;2.40;;;1.40;;
77152;SDS011;66124;51.146;17.072;2023-04-12T09:55:24;3.30;;;1.70;;
77152;SDS011;66124;51.146;17.072;2023-04-12T09:57:55;2.00;;;1.40;;
77152;SDS011;66124;51.146;17.072;2023-04-12T10:00:27;3.00;;;1.70;;
77152;SDS011;66124;51.146;17.072;2023-04-12T10:02:58;4.20;;;1.50;;
77152;SDS011;66124;51.146;17.072;2023-04-12T10:05:28;3.30;;;1.70;;
77152;SDS011;66124;51.146;17.072;2023-04-12T10:07:57;3.30;;;1.70;;
77152;SDS011;66124;51.146;17.072;2023-04-12T10:10:28;3.70;;;1.60;;
77152;SDS011;66124;51.146;17.072;2023-04-12T10:12:57;2.30;;;1.50;;
77152;SDS011;66124;51.146;17.072;2023-04-12T10:15:28;3.50;;;1.60;;
77152;SDS011;66124;51.146;17.072;2023-04-12T10:17:59;2.50;;;1.60;;
77152;SDS011;66124;51.146;17.072;2023-04-12T10:20:30;2.60;;;1.60;;
77152;SDS011;66124;51.146;17.072;2023-04-12T10:23:01;2.70;;;1.80;;
77152;SDS011;66124;51.146;17.072;2023-04-12T10:26:19;1.90;;;1.50;;
77152;SDS011;66124;51.146;17.072;2023-04-12T10:28:55;3.40;;;2.10;;
77152;SDS011;66124;51.146;17.072;2023-04-12T10:31:53;2.40;;;2.00;;
77152;SDS011;66124;51.146;17.072;2023-04-12T10:34:28;3.70;;;1.90;;
77152;SDS011;66124;51.146;17.072;2023-04-12T10:36:59;3.10;;;2.20;;
77152;SDS011;66124;51.146;17.072;2023-04-12T10:39:39;2.90;;;2.20;;
77152;SDS011;66124;51.146;17.072;2023-04-12T10:42:22;2.90;;;1.80;;
77152;SDS011;66124;51.146;17.072;2023-04-12T10:47:59;3.70;;;1.50;;
77152;SDS011;66124;51.146;17.072;2023-04-12T10:50:41;3.70;;;1.50;;
77152;SDS011;66124;51.146;17.072;2023-04-12T10:53:26;1.90;;;1.70;;
77152;SDS011;66124;51.146;17.072;2023-04-12T10:55:57;1.70;;;1.60;;
77152;SDS011;66124;51.146;17.072;2023-04-12T10:58:56;2.20;;;1.20;;
77152;SDS011;66124;51.146;17.072;2023-04-12T11:01:29;4.50;;;2.00;;
77152;SDS011;66124;51.146;17.072;2023-04-12T11:04:07;3.40;;;1.30;;
77152;SDS011;66124;51.146;17.072;2023-04-12T11:09:37;2.60;;;1.70;;
77152;SDS011;66124;51.146;17.072;2023-04-12T11:12:13;2.90;;;1.80;;
77152;SDS011;66124;51.146;17.072;2023-04-12T11:17:30;2.70;;;1.60;;
77152;SDS011;66124;51.146;17.072;2023-04-12T11:20:02;1.80;;;1.10;;
77152;SDS011;66124;51.146;17.072;2023-04-12T11:22:41;1.20;;;1.10;;
77152;SDS011;66124;51.146;17.072;2023-04-12T11:25:17;1.60;;;1.10;;
77152;SDS011;66124;51.146;17.072;2023-04-12T11:27:55;2.00;;;1.20;;
77152;SDS011;66124;51.146;17.072;2023-04-12T11:30:48;1.70;;;1.40;;
77152;SDS011;66124;51.146;17.072;2023-04-12T11:33:34;2.00;;;1.30;;
77152;SDS011;66124;51.146;17.072;2023-04-12T11:49:19;2.50;;;1.20;;
77152;SDS011;66124;51.146;17.072;2023-04-12T11:52:03;2.30;;;1.20;;
77152;SDS011;66124;51.146;17.072;2023-04-12T11:54:33;2.60;;;1.10;;
77152;SDS011;66124;51.146;17.072;2023-04-12T11:57:03;1.80;;;1.40;;
77152;SDS011;66124;51.146;17.072;2023-04-12T11:59:37;2.60;;;1.10;;
77152;SDS011;66124;51.146;17.072;2023-04-12T12:02:10;1.80;;;0.90;;
77152;SDS011;66124;51.146;17.072;2023-04-12T12:04:41;2.80;;;0.90;;
77152;SDS011;66124;51.146;17.072;2023-04-12T12:07:14;0.80;;;0.80;;
77152;SDS011;66124;51.146;17.072;2023-04-12T12:09:44;0.80;;;0.70;;
77152;SDS011;66124;51.146;17.072;2023-04-12T12:12:15;0.90;;;0.80;;
77152;SDS011;66124;51.146;17.072;2023-04-12T12:14:52;1.10;;;0.70;;
77152;SDS011;66124;51.146;17.072;2023-04-12T12:17:26;2.00;;;0.80;;
77152;SDS011;66124;51.146;17.072;2023-04-12T12:19:57;1.60;;;1.00;;
77152;SDS011;66124;51.146;17.072;2023-04-12T12:22:32;2.00;;;1.10;;
77152;SDS011;66124;51.146;17.072;2023-04-12T12:25:03;1.90;;;1.10;;
77152;SDS011;66124;51.146;17.072;2023-04-12T12:27:35;1.80;;;1.10;;
77152;SDS011;66124;51.146;17.072;2023-04-12T12:30:15;3.20;;;1.20;;
77152;SDS011;66124;51.146;17.072;2023-04-12T12:32:45;1.90;;;1.40;;
77152;SDS011;66124;51.146;17.072;2023-04-12T12:35:23;3.20;;;1.20;;
77152;SDS011;66124;51.146;17.072;2023-04-12T12:37:53;2.20;;;1.10;;
77152;SDS011;66124;51.146;17.072;2023-04-12T12:40:28;2.30;;;1.60;;
77152;SDS011;66124;51.146;17.072;2023-04-12T12:42:58;3.10;;;1.90;;
77152;SDS011;66124;51.146;17.072;2023-04-12T12:45:31;2.40;;;1.40;;
77152;SDS011;66124;51.146;17.072;2023-04-12T12:48:03;2.50;;;1.90;;
77152;SDS011;66124;51.146;17.072;2023-04-12T12:50:33;1.40;;;1.30;;
77152;SDS011;66124;51.146;17.072;2023-04-12T12:53:11;2.20;;;1.40;;
77152;SDS011;66124;51.146;17.072;2023-04-12T12:55:43;2.40;;;1.50;;
77152;SDS011;66124;51.146;17.072;2023-04-12T12:58:14;2.00;;;1.40;;
77152;SDS011;66124;51.146;17.072;2023-04-12T13:14:57;1.90;;;1.50;;
77152;SDS011;66124;51.146;17.072;2023-04-12T13:17:27;2.00;;;1.20;;
77152;SDS011;66124;51.146;17.072;2023-04-12T13:19:58;3.30;;;1.40;;
77152;SDS011;66124;51.146;17.072;2023-04-12T13:22:35;2.00;;;1.10;;
77152;SDS011;66124;51.146;17.072;2023-04-12T13:25:06;2.90;;;1.30;;
77152;SDS011;66124;51.146;17.072;2023-04-12T13:27:38;2.90;;;1.50;;
77152;SDS011;66124;51.146;17.072;2023-04-12T13:30:24;1.60;;;1.10;;
77152;SDS011;66124;51.146;17.072;2023-04-12T13:32:56;1.90;;;1.10;;
77152;SDS011;66124;51.146;17.072;2023-04-12T13:35:27;1.40;;;1.20;;
77152;SDS011;66124;51.146;17.072;2023-04-12T13:40:49;2.10;;;1.20;;
77152;SDS011;66124;51.146;17.072;2023-04-12T13:43:27;2.00;;;1.10;;
77152;SDS011;66124;51.146;17.072;2023-04-12T13:45:57;3.40;;;2.00;;
77152;SDS011;66124;51.146;17.072;2023-04-12T13:48:27;1.30;;;1.10;;
77152;SDS011;66124;51.146;17.072;2023-04-12T13:50:57;2.40;;;1.50;;
77152;SDS011;66124;51.146;17.072;2023-04-12T13:53:29;1.60;;;1.00;;
77152;SDS011;66124;51.146;17.072;2023-04-12T13:56:01;1.60;;;1.20;;
77152;SDS011;66124;51.146;17.072;2023-04-12T13:58:31;2.50;;;1.20;;
77152;SDS011;66124;51.146;17.072;2023-04-12T14:01:03;3.20;;;1.20;;
77152;SDS011;66124;51.146;17.072;2023-04-12T14:03:47;2.10;;;1.10;;
77152;SDS011;66124;51.146;17.072;2023-04-12T14:06:16;2.40;;;1.20;;
77152;SDS011;66124;51.146;17.072;2023-04-12T14:08:47;2.80;;;1.30;;
77152;SDS011;66124;51.146;17.072;2023-04-12T14:11:17;1.60;;;1.40;;
77152;SDS011;66124;51.146;17.072;2023-04-12T14:13:55;2.00;;;1.20;;
77152;SDS011;66124;51.146;17.072;2023-04-12T14:16:25;1.80;;;1.30;;
77152;SDS011;66124;51.146;17.072;2023-04-12T14:18:55;2.00;;;1.30;;
77152;SDS011;66124;51.146;17.072;2023-04-12T14:21:25;1.60;;;1.50;;
77152;SDS011;66124;51.146;17.072;2023-04-12T14:23:56;2.10;;;1.20;;
77152;SDS011;66124;51.146;17.072;2023-04-12T14:34:52;1.60;;;1.10;;
77152;SDS011;66124;51.146;17.072;2023-04-12T14:37:22;1.80;;;1.40;;
77152;SDS011;66124;51.146;17.072;2023-04-12T14:39:55;1.80;;;1.20;;
77152;SDS011;66124;51.146;17.072;2023-04-12T14:42:24;1.60;;;1.10;;
77152;SDS011;66124;51.146;17.072;2023-04-12T14:45:10;1.20;;;1.10;;
77152;SDS011;66124;51.146;17.072;2023-04-12T14:47:41;2.50;;;1.20;;
77152;SDS011;66124;51.146;17.072;2023-04-12T14:50:13;2.60;;;1.40;;
77152;SDS011;66124;51.146;17.072;2023-04-12T14:55:11;2.10;;;1.30;;
77152;SDS011;66124;51.146;17.072;2023-04-12T14:57:43;2.00;;;1.20;;
77152;SDS011;66124;51.146;17.072;2023-04-12T15:00:13;3.90;;;1.40;;
77152;SDS011;66124;51.146;17.072;2023-04-12T15:02:45;2.00;;;1.30;;
77152;SDS011;66124;51.146;17.072;2023-04-12T15:05:15;2.30;;;1.30;;
77152;SDS011;66124;51.146;17.072;2023-04-12T15:07:49;2.30;;;1.10;;
77152;SDS011;66124;51.146;17.072;2023-04-12T15:10:22;2.20;;;1.40;;
77152;SDS011;66124;51.146;17.072;2023-04-12T15:12:54;1.90;;;1.20;;
77152;SDS011;66124;51.146;17.072;2023-04-12T15:15:24;2.00;;;1.20;;
77152;SDS011;66124;51.146;17.072;2023-04-12T15:17:54;2.10;;;1.30;;
77152;SDS011;66124;51.146;17.072;2023-04-12T15:20:24;1.60;;;1.20;;
77152;SDS011;66124;51.146;17.072;2023-04-12T15:22:55;1.90;;;1.60;;
77152;SDS011;66124;51.146;17.072;2023-04-12T15:25:30;3.60;;;1.70;;
77152;SDS011;66124;51.146;17.072;2023-04-12T15:28:00;2.00;;;1.50;;
77152;SDS011;66124;51.146;17.072;2023-04-12T15:30:30;2.40;;;1.80;;
77152;SDS011;66124;51.146;17.072;2023-04-12T15:32:59;2.60;;;1.80;;
77152;SDS011;66124;51.146;17.072;2023-04-12T15:35:29;2.10;;;1.60;;
77152;SDS011;66124;51.146;17.072;2023-04-12T15:38:00;3.20;;;1.70;;
77152;SDS011;66124;51.146;17.072;2023-04-12T15:40:32;3.20;;;1.50;;
77152;SDS011;66124;51.146;17.072;2023-04-12T15:43:04;2.80;;;1.40;;
77152;SDS011;66124;51.146;17.072;2023-04-12T15:50:45;3.30;;;1.90;;
77152;SDS011;66124;51.146;17.072;2023-04-12T15:53:15;1.90;;;1.50;;
77152;SDS011;66124;51.146;17.072;2023-04-12T15:55:51;3.30;;;1.90;;
77152;SDS011;66124;51.146;17.072;2023-04-12T15:58:22;1.90;;;1.40;;
77152;SDS011;66124;51.146;17.072;2023-04-12T16:00:52;1.70;;;1.50;;
77152;SDS011;66124;51.146;17.072;2023-04-12T16:03:22;3.30;;;1.60;;
77152;SDS011;66124;51.146;17.072;2023-04-12T16:05:57;4.80;;;2.40;;
77152;SDS011;66124;51.146;17.072;2023-04-12T16:08:39;4.00;;;1.90;;
77152;SDS011;66124;51.146;17.072;2023-04-12T16:11:16;2.00;;;1.30;;
77152;SDS011;66124;51.146;17.072;2023-04-12T16:13:47;2.20;;;1.20;;
77152;SDS011;66124;51.146;17.072;2023-04-12T16:16:17;2.30;;;1.50;;
77152;SDS011;66124;51.146;17.072;2023-04-12T16:18:49;2.00;;;1.10;;
77152;SDS011;66124;51.146;17.072;2023-04-12T16:21:20;1.70;;;1.40;;
77152;SDS011;66124;51.146;17.072;2023-04-12T16:23:51;3.40;;;1.50;;
77152;SDS011;66124;51.146;17.072;2023-04-12T16:26:24;1.70;;;1.40;;
77152;SDS011;66124;51.146;17.072;2023-04-12T16:28:57;2.20;;;1.20;;
77152;SDS011;66124;51.146;17.072;2023-04-12T16:31:29;3.20;;;1.20;;
77152;SDS011;66124;51.146;17.072;2023-04-12T16:33:59;2.20;;;1.30;;
77152;SDS011;66124;51.146;17.072;2023-04-12T16:39:12;1.80;;;1.20;;
77152;SDS011;66124;51.146;17.072;2023-04-12T16:41:42;1.90;;;1.10;;
77152;SDS011;66124;51.146;17.072;2023-04-12T16:44:23;2.90;;;1.10;;
77152;SDS011;66124;51.146;17.072;2023-04-12T16:49:50;3.00;;;0.90;;